Time;durP1;ratioP1;P1;durP2;ratioP2;P2;SDS_P1;SDS_P2;PMS_P1;PMS_P2;Temp;Humidity;BMP_temperature;BMP_pressure;BME280_temperature;BME280_humidity;BME280_pressure;Samples;Min_cycle;Max_cycle;Signal;HPM_P1;HPM_P2
2022/04/24 00:00:01;;;;;;;32.65;15.98;;;9.40;99.90;;;;;;5007122;28;20470;-81
2022/04/24 00:02:27;;;;;;;33.35;16.27;;;9.40;99.90;;;;;;5006650;28;20057;-82
2022/04/24 00:04:53;;;;;;;37.30;18.90;;;9.40;99.90;;;;;;5006785;28;20026;-82
2022/04/24 00:07:19;;;;;;;34.95;16.58;;;9.40;99.90;;;;;;5007588;28;20036;-82
2022/04/24 00:09:45;;;;;;;32.80;17.10;;;9.40;99.90;;;;;;5006674;28;20030;-82
2022/04/24 00:12:16;;;;;;;36.30;17.20;;;9.40;99.90;;;;;;5005932;28;20470;-81
2022/04/24 00:14:43;;;;;;;37.20;17.40;;;9.40;99.90;;;;;;5008205;28;20029;-82
2022/04/24 00:17:09;;;;;;;34.38;17.23;;;9.40;99.90;;;;;;5007000;28;21769;-82
2022/04/24 00:19:34;;;;;;;33.85;16.48;;;9.40;99.90;;;;;;5004523;28;20121;-83
2022/04/24 00:22:00;;;;;;;35.17;17.95;;;9.40;99.90;;;;;;5005148;28;20037;-82
2022/04/24 00:24:26;;;;;;;35.40;17.15;;;9.50;99.90;;;;;;5008354;28;20389;-82
2022/04/24 00:26:52;;;;;;;33.58;17.30;;;9.50;99.90;;;;;;5007644;28;20034;-82
2022/04/24 00:29:18;;;;;;;34.25;17.17;;;9.50;99.90;;;;;;5005520;28;20045;-81
2022/04/24 00:31:44;;;;;;;33.80;15.48;;;9.50;99.90;;;;;;5003791;28;20041;-82
2022/04/24 00:34:09;;;;;;;34.38;17.35;;;9.60;99.90;;;;;;5005887;28;20393;-82
2022/04/24 00:36:35;;;;;;;38.60;18.73;;;9.60;99.90;;;;;;5006073;28;20165;-82
2022/04/24 00:39:00;;;;;;;34.60;18.17;;;9.50;99.90;;;;;;5005181;28;20533;-82
2022/04/24 00:41:26;;;;;;;37.70;19.33;;;9.40;99.90;;;;;;5007247;28;20132;-83
2022/04/24 00:43:53;;;;;;;33.92;17.17;;;9.40;99.90;;;;;;5006079;28;20050;-82
2022/04/24 00:46:53;;;;;;;33.60;16.73;;;9.40;99.90;;;;;;5006232;28;20037;-83
2022/04/24 00:49:19;;;;;;;32.17;15.50;;;9.50;99.90;;;;;;5003852;28;20058;-82
2022/04/24 00:51:46;;;;;;;35.08;19.67;;;9.50;99.90;;;;;;5006447;28;20045;-82
2022/04/24 00:54:12;;;;;;;40.80;18.83;;;9.50;99.90;;;;;;5007493;28;20034;-82
2022/04/24 00:56:40;;;;;;;38.22;18.75;;;9.50;99.90;;;;;;5005903;28;20096;-82
2022/04/24 00:59:08;;;;;;;33.35;16.63;;;9.50;99.90;;;;;;5007450;28;20060;-82
2022/04/24 01:01:35;;;;;;;37.13;17.15;;;9.50;99.90;;;;;;5003572;28;20504;-83
2022/04/24 01:04:03;;;;;;;38.75;17.52;;;9.50;99.90;;;;;;5007728;28;20045;-83
2022/04/24 01:06:33;;;;;;;38.63;18.30;;;9.50;99.90;;;;;;5006246;28;20037;-83
2022/04/24 01:09:16;;;;;;;36.15;18.10;;;9.40;99.90;;;;;;5004973;28;20092;-82
2022/04/24 01:11:43;;;;;;;34.30;17.50;;;9.40;99.90;;;;;;5005706;28;20030;-82
2022/04/24 01:14:09;;;;;;;33.92;16.40;;;9.40;99.90;;;;;;5018656;28;20049;-82
2022/04/24 01:16:36;;;;;;;37.92;17.20;;;9.30;99.90;;;;;;5006391;28;20038;-83
2022/04/24 01:19:03;;;;;;;35.40;16.75;;;9.40;99.90;;;;;;5005698;28;20112;-82
2022/04/24 01:21:29;;;;;;;35.03;17.33;;;9.40;99.90;;;;;;5005363;28;20042;-83
2022/04/24 01:23:54;;;;;;;36.70;18.65;;;9.40;99.90;;;;;;5004846;28;20022;-82
2022/04/24 01:26:20;;;;;;;36.60;17.30;;;9.30;99.90;;;;;;5005695;28;20046;-82
2022/04/24 01:28:46;;;;;;;33.88;17.48;;;9.30;99.90;;;;;;5003627;28;20049;-82
2022/04/24 01:31:11;;;;;;;32.45;15.57;;;9.30;99.90;;;;;;5004344;28;20058;-82
2022/04/24 01:33:37;;;;;;;35.92;17.88;;;9.30;99.90;;;;;;5020550;28;20068;-82
2022/04/24 01:36:03;;;;;;;37.10;17.65;;;9.30;99.90;;;;;;5005388;28;20524;-82
2022/04/24 01:38:29;;;;;;;35.13;17.65;;;9.30;99.90;;;;;;5005982;28;20080;-82
2022/04/24 01:40:55;;;;;;;34.83;17.10;;;9.30;99.90;;;;;;5007096;28;20042;-81
2022/04/24 01:43:21;;;;;;;37.70;17.77;;;9.30;99.90;;;;;;5003229;28;20053;-82
2022/04/24 01:45:46;;;;;;;34.47;16.17;;;9.20;99.90;;;;;;5007469;28;20033;-82
2022/04/24 01:48:12;;;;;;;35.67;17.42;;;9.20;99.90;;;;;;5004382;28;20063;-81
2022/04/24 01:50:38;;;;;;;35.83;17.42;;;9.30;99.90;;;;;;5006397;28;20080;-82
2022/04/24 01:53:03;;;;;;;36.90;16.25;;;9.30;99.90;;;;;;5006425;28;20115;-81
2022/04/24 01:55:29;;;;;;;34.40;16.27;;;9.30;99.90;;;;;;5001876;28;20038;-82
2022/04/24 01:57:55;;;;;;;33.47;17.05;;;9.30;99.90;;;;;;5000894;28;20442;-81
2022/04/24 02:00:20;;;;;;;38.08;18.20;;;9.30;99.90;;;;;;5004111;28;20048;-82
2022/04/24 02:02:47;;;;;;;39.28;17.77;;;9.30;99.90;;;;;;5006633;28;20164;-83
2022/04/24 02:05:13;;;;;;;37.92;18.38;;;9.30;99.90;;;;;;5005275;28;20038;-82
2022/04/24 02:07:39;;;;;;;36.88;18.92;;;9.20;99.90;;;;;;5006332;28;20382;-83
2022/04/24 02:10:05;;;;;;;34.85;17.85;;;9.20;99.90;;;;;;5006596;28;20037;-82
2022/04/24 02:12:30;;;;;;;38.95;18.33;;;9.20;99.90;;;;;;5006351;28;20042;-82
2022/04/24 02:14:57;;;;;;;37.38;17.65;;;9.20;99.90;;;;;;5006091;28;20107;-82
2022/04/24 02:17:23;;;;;;;36.42;16.75;;;9.30;99.90;;;;;;5008927;28;20097;-82
2022/04/24 02:19:48;;;;;;;32.47;17.02;;;9.20;99.90;;;;;;5007897;28;20450;-82
2022/04/24 02:22:14;;;;;;;40.15;18.02;;;9.20;99.90;;;;;;5009264;28;20085;-82
2022/04/24 02:24:39;;;;;;;37.63;17.42;;;9.20;99.90;;;;;;5004639;28;20029;-82
2022/04/24 02:27:05;;;;;;;38.95;18.45;;;9.20;99.90;;;;;;5007875;28;20052;-81
2022/04/24 02:29:31;;;;;;;34.35;15.95;;;9.30;99.90;;;;;;5006815;28;20520;-81
2022/04/24 02:31:57;;;;;;;23.52;12.18;;;9.30;99.90;;;;;;5006650;28;20037;-82
2022/04/24 02:34:23;;;;;;;33.25;16.05;;;9.40;99.90;;;;;;5010521;28;20088;-81
2022/04/24 02:36:48;;;;;;;35.92;17.02;;;9.40;99.90;;;;;;5010134;28;20389;-81
2022/04/24 02:39:14;;;;;;;33.38;15.48;;;9.40;99.90;;;;;;5024405;28;20029;-82
2022/04/24 02:41:40;;;;;;;37.50;17.13;;;9.40;99.90;;;;;;5011088;28;20057;-83
2022/04/24 02:44:05;;;;;;;35.47;16.40;;;9.50;99.90;;;;;;5009234;28;20535;-81
2022/04/24 02:46:31;;;;;;;33.38;15.80;;;9.50;99.90;;;;;;5009444;28;20034;-81
2022/04/24 02:48:57;;;;;;;34.80;16.00;;;9.50;99.90;;;;;;5009170;28;20535;-82
2022/04/24 02:51:22;;;;;;;35.55;17.58;;;9.40;99.90;;;;;;5009951;28;20061;-81
2022/04/24 02:53:48;;;;;;;33.72;15.60;;;9.40;99.90;;;;;;5010054;28;20148;-81
2022/04/24 02:56:14;;;;;;;35.80;17.67;;;9.50;99.90;;;;;;5007272;28;20103;-82
2022/04/24 02:58:39;;;;;;;34.22;15.93;;;9.50;99.90;;;;;;5008572;28;20076;-81
2022/04/24 03:01:05;;;;;;;35.03;15.60;;;9.50;99.90;;;;;;5009047;28;20096;-82
2022/04/24 03:03:31;;;;;;;31.40;15.05;;;9.60;99.90;;;;;;5009790;28;20037;-81
2022/04/24 03:05:57;;;;;;;33.20;16.40;;;9.60;99.90;;;;;;5008770;28;20477;-81
2022/04/24 03:08:23;;;;;;;34.45;16.02;;;9.60;99.90;;;;;;5005654;28;20372;-81
2022/04/24 03:10:48;;;;;;;35.15;16.02;;;9.60;99.90;;;;;;5008704;28;20027;-81
2022/04/24 03:13:14;;;;;;;28.98;14.52;;;9.60;99.90;;;;;;5006823;28;20514;-82
2022/04/24 03:15:40;;;;;;;32.53;14.82;;;9.60;99.90;;;;;;5008664;28;20128;-82
2022/04/24 03:18:06;;;;;;;29.27;14.75;;;9.60;99.90;;;;;;5008807;28;20034;-81
2022/04/24 03:20:32;;;;;;;33.00;16.23;;;9.60;99.90;;;;;;5008474;28;20095;-81
2022/04/24 03:22:58;;;;;;;29.80;14.25;;;9.60;99.90;;;;;;5006643;28;20502;-81
2022/04/24 03:25:24;;;;;;;29.83;14.95;;;9.60;99.90;;;;;;5007839;28;20025;-81
2022/04/24 03:27:49;;;;;;;33.53;16.00;;;9.70;99.90;;;;;;5008861;28;20099;-81
2022/04/24 03:30:16;;;;;;;31.13;16.13;;;9.60;99.90;;;;;;5023540;28;20509;-81
2022/04/24 03:32:41;;;;;;;34.63;17.02;;;9.60;99.90;;;;;;5021326;28;20045;-81
2022/04/24 03:35:09;;;;;;;32.08;15.02;;;9.60;99.90;;;;;;5006397;28;20050;-82
2022/04/24 03:37:38;;;;;;;35.72;17.40;;;9.50;99.90;;;;;;5008788;28;20041;-82
2022/04/24 03:40:05;;;;;;;33.85;16.17;;;9.50;99.90;;;;;;5008646;28;20046;-81
2022/04/24 03:42:32;;;;;;;34.33;16.77;;;9.50;99.90;;;;;;5022629;28;20077;-82
2022/04/24 03:44:58;;;;;;;32.97;15.77;;;9.60;99.90;;;;;;5008878;28;20034;-82
2022/04/24 03:47:25;;;;;;;31.95;16.23;;;9.60;99.90;;;;;;5007075;28;20111;-83
2022/04/24 03:49:51;;;;;;;28.97;15.43;;;9.60;99.90;;;;;;5008531;28;20088;-82
2022/04/24 03:52:17;;;;;;;32.92;14.82;;;9.60;99.90;;;;;;5009229;28;20089;-82
2022/04/24 03:54:43;;;;;;;27.42;13.73;;;9.70;99.90;;;;;;5005610;28;20125;-82
2022/04/24 03:57:09;;;;;;;29.75;13.90;;;9.60;99.90;;;;;;5006306;28;20034;-82
2022/04/24 03:59:36;;;;;;;31.23;15.60;;;9.60;99.90;;;;;;5010553;28;20075;-83
2022/04/24 04:02:02;;;;;;;31.73;15.60;;;9.40;99.90;;;;;;5007456;28;20037;-82
2022/04/24 04:04:28;;;;;;;33.85;15.93;;;9.40;99.90;;;;;;5007783;28;20026;-83
2022/04/24 04:06:54;;;;;;;33.60;16.00;;;9.30;99.90;;;;;;5022385;28;20052;-83
2022/04/24 04:09:19;;;;;;;34.63;17.73;;;9.30;99.90;;;;;;5008678;28;20042;-83
2022/04/24 04:11:45;;;;;;;35.58;17.23;;;9.20;99.90;;;;;;5009237;28;20057;-84
2022/04/24 04:14:11;;;;;;;32.00;16.40;;;9.20;99.90;;;;;;5009909;28;20457;-83
2022/04/24 04:16:37;;;;;;;38.72;18.00;;;9.30;99.90;;;;;;5008310;28;20737;-83
2022/04/24 04:19:03;;;;;;;36.70;17.42;;;9.20;99.90;;;;;;5007700;28;20073;-83
2022/04/24 04:21:28;;;;;;;29.98;14.80;;;9.20;99.90;;;;;;5007814;28;20074;-83
2022/04/24 04:23:54;;;;;;;31.10;15.80;;;9.30;99.90;;;;;;5019844;28;20049;-84
2022/04/24 04:26:20;;;;;;;30.13;16.10;;;9.30;99.90;;;;;;5007746;28;20076;-83
2022/04/24 04:28:50;;;;;;;33.00;15.25;;;9.30;99.90;;;;;;5009628;28;20026;-83
2022/04/24 04:31:17;;;;;;;37.38;15.93;;;9.30;99.90;;;;;;5006818;28;20052;-83
2022/04/24 04:33:43;;;;;;;30.02;14.70;;;9.20;99.90;;;;;;5009914;28;20465;-83
2022/04/24 04:36:09;;;;;;;34.33;15.25;;;9.20;99.90;;;;;;5008608;28;20049;-83
2022/04/24 04:38:35;;;;;;;36.80;15.98;;;9.20;99.90;;;;;;5006769;28;20061;-82
2022/04/24 04:41:01;;;;;;;34.90;17.23;;;9.20;99.90;;;;;;5007266;28;20081;-82
2022/04/24 04:43:26;;;;;;;35.88;16.35;;;9.30;99.90;;;;;;5007906;28;20062;-83
2022/04/24 04:45:52;;;;;;;33.78;15.50;;;9.20;99.90;;;;;;5008987;28;20140;-83
2022/04/24 04:48:18;;;;;;;32.70;16.05;;;9.20;99.90;;;;;;5006649;28;20041;-83
2022/04/24 04:50:44;;;;;;;32.08;15.32;;;9.20;99.90;;;;;;5009541;28;20038;-83
2022/04/24 04:53:10;;;;;;;35.28;16.52;;;9.20;99.90;;;;;;5008911;28;20033;-82
2022/04/24 04:55:36;;;;;;;20.77;10.32;;;9.20;99.90;;;;;;5005487;28;20045;-84
2022/04/24 04:58:02;;;;;;;17.17;9.23;;;9.20;99.90;;;;;;5007361;28;20034;-84
2022/04/24 05:00:28;;;;;;;14.77;7.57;;;9.20;99.90;;;;;;5007279;28;20034;-85
2022/04/24 05:02:54;;;;;;;21.63;12.80;;;9.20;99.90;;;;;;5003311;28;20022;-84
2022/04/24 05:05:20;;;;;;;29.48;14.20;;;9.20;99.90;;;;;;5006764;28;20480;-84
2022/04/24 05:07:47;;;;;;;25.65;12.38;;;9.30;99.90;;;;;;5008299;28;20052;-84
2022/04/24 05:10:12;;;;;;;20.58;10.25;;;9.30;99.90;;;;;;5007924;28;20052;-85
2022/04/24 05:12:38;;;;;;;18.75;9.32;;;9.20;99.90;;;;;;5008056;28;20041;-85
2022/04/24 05:15:09;;;;;;;17.20;9.23;;;9.20;99.90;;;;;;5004850;28;20033;-85
2022/04/24 05:17:36;;;;;;;25.10;10.52;;;9.20;99.90;;;;;;5010571;28;20041;-85
2022/04/24 05:20:06;;;;;;;21.35;10.73;;;9.30;99.90;;;;;;5006536;28;20033;-84
2022/04/24 05:22:32;;;;;;;18.75;9.60;;;9.20;99.90;;;;;;5009600;28;20076;-85
2022/04/24 05:24:57;;;;;;;21.75;9.20;;;9.30;99.90;;;;;;5010424;28;20485;-85
2022/04/24 05:27:23;;;;;;;18.48;9.20;;;9.30;99.90;;;;;;5006628;28;20445;-84
2022/04/24 05:29:49;;;;;;;21.10;10.23;;;9.30;99.90;;;;;;5007840;28;20037;-85
2022/04/24 05:32:15;;;;;;;19.58;9.88;;;9.30;99.90;;;;;;5006358;28;20495;-85
2022/04/24 05:34:41;;;;;;;22.83;11.55;;;9.40;99.90;;;;;;5002631;28;20037;-85
2022/04/24 05:37:07;;;;;;;22.42;10.00;;;9.40;99.90;;;;;;5005251;28;20030;-85
2022/04/24 05:39:33;;;;;;;21.45;10.43;;;9.40;99.90;;;;;;5003427;28;20044;-84
2022/04/24 05:41:59;;;;;;;20.00;10.40;;;9.40;99.90;;;;;;5003332;28;20216;-84
2022/04/24 05:44:24;;;;;;;19.42;9.95;;;9.40;99.90;;;;;;5005930;28;20521;-85
2022/04/24 05:46:50;;;;;;;20.05;10.63;;;9.40;99.90;;;;;;5003591;28;20034;-84
2022/04/24 05:49:16;;;;;;;21.65;9.82;;;9.40;99.90;;;;;;5004833;28;20034;-85
2022/04/24 05:51:42;;;;;;;22.58;9.40;;;9.40;99.90;;;;;;5006344;28;20385;-85
2022/04/24 05:54:11;;;;;;;10.68;6.25;;;9.40;99.90;;;;;;5002650;28;20049;-84
2022/04/24 05:56:38;;;;;;;15.93;8.52;;;9.40;99.90;;;;;;5007264;28;20030;-84
2022/04/24 05:59:04;;;;;;;15.52;8.68;;;9.40;99.90;;;;;;5004885;28;20038;-84
2022/04/24 06:01:31;;;;;;;13.98;7.45;;;9.40;99.90;;;;;;5003435;28;20066;-84
2022/04/24 06:03:56;;;;;;;18.70;8.00;;;9.30;99.90;;;;;;5006367;28;20048;-84
2022/04/24 06:06:22;;;;;;;16.65;8.48;;;9.40;99.90;;;;;;5004349;28;20030;-85
2022/04/24 06:08:48;;;;;;;18.63;8.57;;;9.30;99.90;;;;;;5006116;28;20568;-85
2022/04/24 06:11:13;;;;;;;20.52;8.68;;;9.40;99.90;;;;;;5006461;28;20034;-84
2022/04/24 06:13:39;;;;;;;19.48;9.18;;;9.40;99.90;;;;;;5002665;28;20038;-84
2022/04/24 06:16:08;;;;;;;15.10;8.20;;;9.50;99.90;;;;;;5003918;28;20377;-83
2022/04/24 06:18:33;;;;;;;17.05;8.50;;;9.50;99.90;;;;;;5006405;28;20477;-85
2022/04/24 06:20:59;;;;;;;16.77;8.27;;;9.50;99.90;;;;;;5003849;28;20042;-84
2022/04/24 06:23:27;;;;;;;18.10;8.65;;;9.60;99.90;;;;;;5004307;28;20038;-83
2022/04/24 06:25:53;;;;;;;15.63;8.20;;;9.60;99.90;;;;;;5004968;28;20030;-83
2022/04/24 06:28:18;;;;;;;17.58;8.38;;;9.70;99.90;;;;;;5009090;28;20038;-84
2022/04/24 06:30:44;;;;;;;15.65;7.95;;;9.70;99.90;;;;;;5007642;28;20022;-84
2022/04/24 06:33:11;;;;;;;16.83;8.35;;;9.80;99.90;;;;;;5008084;28;20041;-84
2022/04/24 06:35:37;;;;;;;14.30;7.72;;;9.80;99.90;;;;;;5007779;28;20030;-84
2022/04/24 06:38:04;;;;;;;16.33;7.68;;;9.90;99.90;;;;;;5007407;28;20036;-85
2022/04/24 06:40:30;;;;;;;14.05;7.65;;;9.90;99.90;;;;;;5006626;28;20384;-84
2022/04/24 06:42:57;;;;;;;17.67;8.93;;;9.90;99.90;;;;;;5007862;28;20050;-84
2022/04/24 06:45:30;;;;;;;16.38;8.68;;;9.90;99.90;;;;;;5005331;28;20034;-85
2022/04/24 06:48:07;;;;;;;13.38;8.07;;;10.00;99.90;;;;;;5022163;28;20034;-84
2022/04/24 06:50:37;;;;;;;17.17;8.68;;;10.00;99.90;;;;;;5007971;28;20065;-84
2022/04/24 06:53:21;;;;;;;17.17;8.52;;;10.00;99.90;;;;;;5003928;28;20026;-84
2022/04/24 06:55:48;;;;;;;9.88;5.68;;;10.00;99.90;;;;;;5016204;28;20034;-84
2022/04/24 06:58:16;;;;;;;7.88;4.38;;;10.00;99.90;;;;;;5000679;28;20072;-84
2022/04/24 07:00:44;;;;;;;3.63;2.47;;;9.90;99.90;;;;;;5002637;28;20448;-84
2022/04/24 07:03:11;;;;;;;5.50;2.83;;;9.90;99.90;;;;;;5000767;28;20153;-84
2022/04/24 07:05:36;;;;;;;4.03;2.75;;;9.90;99.90;;;;;;5007121;28;20283;-83
2022/04/24 07:08:02;;;;;;;3.72;2.30;;;9.90;99.90;;;;;;5009915;28;20090;-83
2022/04/24 07:10:28;;;;;;;2.15;1.85;;;9.90;99.90;;;;;;5012724;28;20026;-83
2022/04/24 07:12:54;;;;;;;3.75;2.47;;;9.90;99.90;;;;;;5010879;28;20050;-84
2022/04/24 07:15:22;;;;;;;1.83;1.55;;;10.00;99.90;;;;;;5012192;28;20479;-84
2022/04/24 07:17:49;;;;;;;1.98;1.48;;;10.00;99.90;;;;;;5024645;28;20034;-84
2022/04/24 07:20:16;;;;;;;1.17;1.08;;;10.00;99.90;;;;;;5009336;28;20087;-83
2022/04/24 07:22:45;;;;;;;1.33;1.08;;;9.90;99.90;;;;;;5008917;28;20426;-83
2022/04/24 07:25:12;;;;;;;0.93;0.93;;;9.90;99.90;;;;;;5029340;28;20469;-84
2022/04/24 07:27:41;;;;;;;1.42;1.33;;;9.80;99.90;;;;;;5014070;28;20038;-83
2022/04/24 07:30:13;;;;;;;0.93;0.90;;;9.90;99.90;;;;;;5016713;28;20051;-84
2022/04/24 07:32:47;;;;;;;0.75;0.75;;;9.90;99.90;;;;;;4997604;28;20038;-84
2022/04/24 07:35:25;;;;;;;0.75;0.75;;;9.80;99.90;;;;;;5016158;28;20527;-83
2022/04/24 07:37:52;;;;;;;1.40;1.00;;;9.70;99.90;;;;;;5016445;28;20117;-83
2022/04/24 07:40:20;;;;;;;0.75;0.75;;;9.80;99.90;;;;;;5014746;28;20069;-84
2022/04/24 07:42:52;;;;;;;0.80;0.80;;;9.80;99.90;;;;;;5010466;28;20046;-83
2022/04/24 07:45:22;;;;;;;0.70;0.70;;;9.90;99.90;;;;;;5014143;28;20431;-83
2022/04/24 07:47:49;;;;;;;0.90;0.90;;;10.00;99.90;;;;;;5012486;28;20026;-84
2022/04/24 07:50:17;;;;;;;1.23;1.10;;;9.90;99.90;;;;;;5013431;28;20021;-83
2022/04/24 07:52:43;;;;;;;1.10;1.10;;;9.90;99.90;;;;;;5012838;28;20162;-84
2022/04/24 07:55:11;;;;;;;0.73;0.73;;;9.90;99.90;;;;;;5009672;28;20033;-83
2022/04/24 07:57:38;;;;;;;;;;;10.00;99.90;;;;;;5011751;28;20026;-83
2022/04/24 08:00:04;;;;;;;0.98;0.98;;;9.90;99.90;;;;;;5012529;28;19929;-84
2022/04/24 08:02:30;;;;;;;0.75;0.75;;;9.90;99.90;;;;;;5009410;28;20140;-83
2022/04/24 08:04:56;;;;;;;1.52;1.30;;;10.00;99.90;;;;;;5010322;28;20026;-83
2022/04/24 08:07:22;;;;;;;1.30;1.00;;;10.10;99.90;;;;;;5012706;28;20060;-84
2022/04/24 08:09:51;;;;;;;1.38;1.15;;;10.20;99.90;;;;;;5011536;28;20061;-83
2022/04/24 08:12:17;;;;;;;2.60;1.10;;;10.20;99.90;;;;;;5013815;28;20086;-83
2022/04/24 08:14:43;;;;;;;1.60;1.10;;;10.20;99.90;;;;;;5013334;28;20117;-82
2022/04/24 08:17:08;;;;;;;1.52;1.17;;;10.20;99.90;;;;;;5011115;28;20049;-83
2022/04/24 08:19:34;;;;;;;0.98;0.93;;;10.20;99.90;;;;;;5012009;28;20040;-83
2022/04/24 08:22:00;;;;;;;0.68;0.68;;;10.20;99.90;;;;;;5014046;28;20030;-83
2022/04/24 08:24:25;;;;;;;0.70;0.63;;;10.00;99.90;;;;;;5014003;28;20153;-83
2022/04/24 08:26:51;;;;;;;0.98;0.85;;;10.00;99.90;;;;;;5011052;28;20477;-83
2022/04/24 08:29:17;;;;;;;1.10;1.00;;;10.10;99.90;;;;;;5014606;28;20096;-84
2022/04/24 08:31:42;;;;;;;2.05;1.00;;;10.00;99.90;;;;;;5012035;28;20553;-83
2022/04/24 08:34:08;;;;;;;1.10;0.77;;;10.20;99.90;;;;;;5013269;28;20046;-83
2022/04/24 08:36:33;;;;;;;0.60;0.60;;;10.10;99.90;;;;;;5011151;28;20057;-82
2022/04/24 08:38:59;;;;;;;1.02;0.90;;;10.10;99.90;;;;;;5011642;28;20048;-82
2022/04/24 08:41:29;;;;;;;0.75;0.75;;;10.20;99.90;;;;;;5010954;28;20060;-82
2022/04/24 08:43:56;;;;;;;2.92;0.90;;;10.20;99.90;;;;;;5013042;28;20060;-85
2022/04/24 08:46:26;;;;;;;1.15;0.90;;;10.30;99.90;;;;;;5011537;28;20046;-86
2022/04/24 08:48:53;;;;;;;2.10;0.80;;;10.50;99.90;;;;;;5010375;28;20036;-85
2022/04/24 08:51:20;;;;;;;1.02;0.70;;;10.60;99.90;;;;;;5009940;28;20052;-84
2022/04/24 08:53:47;;;;;;;0.60;0.60;;;10.60;99.90;;;;;;5008752;28;20034;-85
2022/04/24 08:56:13;;;;;;;0.65;0.65;;;10.40;99.90;;;;;;5011993;28;20556;-85
2022/04/24 08:58:39;;;;;;;0.70;0.70;;;10.30;99.90;;;;;;5012089;28;20152;-85
2022/04/24 09:01:05;;;;;;;0.85;0.85;;;10.30;99.90;;;;;;5013493;28;20504;-84
2022/04/24 09:03:31;;;;;;;2.85;0.93;;;10.40;99.90;;;;;;5009157;28;20034;-84
2022/04/24 09:05:56;;;;;;;0.50;0.50;;;10.50;99.90;;;;;;5009762;28;20026;-84
2022/04/24 09:08:26;;;;;;;1.05;1.05;;;10.50;99.90;;;;;;5012357;28;20484;-83
2022/04/24 09:10:54;;;;;;;0.70;0.70;;;10.60;99.90;;;;;;5011335;28;20037;-84
2022/04/24 09:14:14;;;;;;;0.80;0.80;;;10.60;99.90;;;;;;5006949;28;20030;-85
2022/04/24 09:16:33;;;;;;;0.50;0.50;;;10.60;99.90;;;;;;5011253;28;20050;-83
2022/04/24 09:18:59;;;;;;;0.68;0.60;;;10.50;99.90;;;;;;5015343;28;20038;-84
2022/04/24 09:21:25;;;;;;;0.45;0.45;;;10.50;99.90;;;;;;5012152;28;20560;-83
2022/04/24 09:23:51;;;;;;;0.50;0.50;;;10.60;99.90;;;;;;5012083;28;20026;-83
2022/04/24 09:26:17;;;;;;;0.50;0.50;;;10.60;99.90;;;;;;5011599;28;20065;-84
2022/04/24 09:28:46;;;;;;;0.47;0.47;;;10.50;99.90;;;;;;5014489;28;20060;-83
2022/04/24 09:31:11;;;;;;;0.30;0.30;;;10.50;99.90;;;;;;5014060;28;20057;-83
2022/04/24 09:33:38;;;;;;;0.70;0.70;;;10.40;99.90;;;;;;5012816;28;20029;-83
2022/04/24 09:36:06;;;;;;;0.47;0.47;;;10.50;99.90;;;;;;5013755;28;20053;-84
2022/04/24 09:38:38;;;;;;;0.40;0.40;;;10.50;99.90;;;;;;5012829;28;20038;-83
2022/04/24 09:41:04;;;;;;;0.40;0.40;;;10.70;99.90;;;;;;5010938;28;20041;-83
2022/04/24 09:43:29;;;;;;;0.60;0.60;;;10.70;99.90;;;;;;5013003;28;20060;-84
2022/04/24 09:45:55;;;;;;;0.50;0.50;;;10.70;99.90;;;;;;5009661;28;20030;-83
2022/04/24 09:48:22;;;;;;;0.60;0.60;;;10.80;99.90;;;;;;5008289;28;20037;-83
2022/04/24 09:50:49;;;;;;;0.60;0.60;;;10.80;99.90;;;;;;5002938;28;20065;-81
2022/04/24 09:53:17;;;;;;;0.68;0.60;;;11.00;99.90;;;;;;5004241;28;20034;-81
2022/04/24 09:55:44;;;;;;;0.70;0.70;;;11.00;99.90;;;;;;5008471;28;20093;-80
2022/04/24 09:58:13;;;;;;;0.50;0.50;;;11.00;99.90;;;;;;5009109;28;20080;-80
2022/04/24 10:00:41;;;;;;;0.50;0.50;;;11.00;99.90;;;;;;5006654;28;20121;-81
2022/04/24 10:03:13;;;;;;;0.50;0.50;;;11.00;99.90;;;;;;5008480;28;20088;-80
2022/04/24 10:05:42;;;;;;;0.63;0.50;;;11.10;99.90;;;;;;5006940;28;20037;-80
2022/04/24 10:08:08;;;;;;;0.50;0.50;;;11.10;99.90;;;;;;5006000;28;20124;-80
2022/04/24 10:10:34;;;;;;;0.65;0.65;;;11.20;99.90;;;;;;5004446;28;20540;-80
2022/04/24 10:13:01;;;;;;;0.40;0.40;;;11.20;99.90;;;;;;5004916;28;20072;-80
2022/04/24 10:15:28;;;;;;;0.40;0.40;;;11.30;99.90;;;;;;5007209;28;20504;-81
2022/04/24 10:18:18;;;;;;;0.50;0.50;;;11.40;99.90;;;;;;5009607;28;20034;-81
2022/04/24 10:21:11;;;;;;;0.40;0.40;;;11.50;99.90;;;;;;5006552;28;20034;-81
2022/04/24 10:23:38;;;;;;;0.30;0.30;;;11.50;99.90;;;;;;5007397;28;20436;-81
2022/04/24 10:26:15;;;;;;;0.45;0.45;;;11.60;99.90;;;;;;5006560;28;20037;-81
2022/04/24 10:28:42;;;;;;;0.45;0.40;;;11.50;99.90;;;;;;5003814;28;20037;-82
2022/04/24 10:31:11;;;;;;;0.40;0.40;;;11.50;99.90;;;;;;5007120;28;20049;-80
2022/04/24 10:33:39;;;;;;;2.22;0.50;;;11.40;99.90;;;;;;5009405;28;20432;-81
2022/04/24 10:36:14;;;;;;;0.50;0.50;;;11.50;99.90;;;;;;5008022;28;20030;-81
2022/04/24 10:39:19;;;;;;;0.40;0.40;;;11.60;99.90;;;;;;5011430;28;20045;-82
2022/04/24 10:42:00;;;;;;;0.60;0.60;;;11.70;99.90;;;;;;5003009;28;20640;-81
2022/04/24 10:44:27;;;;;;;0.73;0.47;;;11.70;99.90;;;;;;5010969;28;20050;-82
2022/04/24 10:46:57;;;;;;;0.30;0.30;;;11.40;99.90;;;;;;5012650;28;20116;-81
2022/04/24 10:49:25;;;;;;;0.40;0.40;;;11.60;99.90;;;;;;5012428;28;20171;-81
2022/04/24 10:52:03;;;;;;;1.20;0.52;;;11.70;99.90;;;;;;5008393;28;20030;-82
2022/04/24 10:54:35;;;;;;;0.40;0.40;;;11.70;99.90;;;;;;5008073;28;20044;-82
2022/04/24 10:57:14;;;;;;;0.40;0.40;;;11.70;99.90;;;;;;5013381;28;20119;-81
2022/04/24 10:59:52;;;;;;;0.47;0.47;;;11.60;99.90;;;;;;5010339;28;20084;-82
2022/04/24 11:02:23;;;;;;;0.50;0.50;;;11.50;99.90;;;;;;5010487;28;20072;-81
2022/04/24 11:05:01;;;;;;;0.40;0.40;;;11.50;99.90;;;;;;5011879;28;20458;-83
2022/04/24 11:07:27;;;;;;;0.30;0.30;;;11.70;99.90;;;;;;5010442;28;20101;-82
2022/04/24 11:10:04;;;;;;;0.30;0.30;;;11.90;99.90;;;;;;5011172;28;20545;-82
2022/04/24 11:12:32;;;;;;;0.35;0.35;;;11.90;99.90;;;;;;5011339;28;20030;-82
2022/04/24 11:15:05;;;;;;;0.50;0.50;;;11.90;99.90;;;;;;5012209;28;20104;-81
2022/04/24 11:17:31;;;;;;;0.63;0.63;;;12.00;99.90;;;;;;5012940;28;20358;-82
2022/04/24 11:20:13;;;;;;;0.30;0.30;;;11.90;99.20;;;;;;5011157;28;20097;-81
2022/04/24 11:22:51;;;;;;;0.30;0.30;;;11.80;99.90;;;;;;5009779;28;20064;-82
2022/04/24 11:25:19;;;;;;;0.32;0.32;;;11.70;99.90;;;;;;5011060;28;20422;-82
2022/04/24 11:27:56;;;;;;;0.50;0.50;;;11.60;99.90;;;;;;5011965;28;20350;-80
2022/04/24 11:30:32;;;;;;;0.40;0.30;;;11.70;99.90;;;;;;5010666;28;20549;-79
2022/04/24 11:33:05;;;;;;;4.15;0.40;;;11.80;99.90;;;;;;5010137;28;20030;-80
2022/04/24 11:35:33;;;;;;;0.30;0.30;;;11.80;99.90;;;;;;5006439;28;20436;-80
2022/04/24 11:37:59;;;;;;;0.30;0.30;;;11.90;99.90;;;;;;5010158;28;20079;-80
2022/04/24 11:40:25;;;;;;;0.55;0.55;;;12.00;99.90;;;;;;5011402;28;20397;-79
2022/04/24 11:42:51;;;;;;;0.38;0.38;;;12.10;99.90;;;;;;5011059;28;20065;-79
2022/04/24 11:50:52;;;;;;;0.32;0.32;;;11.80;97.80;;;;;;5009209;28;20036;-80
2022/04/24 11:53:20;;;;;;;0.40;0.40;;;11.90;99.60;;;;;;5009450;28;20041;-79
2022/04/24 11:56:01;;;;;;;;;;;12.00;99.90;;;;;;5011592;28;20416;-79
2022/04/24 11:58:38;;;;;;;0.40;0.40;;;11.90;98.40;;;;;;5008820;28;19917;-79
2022/04/24 12:01:07;;;;;;;0.30;0.30;;;12.00;99.90;;;;;;5008868;28;20081;-79
2022/04/24 12:03:34;;;;;;;0.38;0.32;;;12.00;98.30;;;;;;5007771;28;20041;-74
2022/04/24 12:06:02;;;;;;;0.50;0.50;;;12.00;99.20;;;;;;5005361;28;20056;-75
2022/04/24 12:08:50;;;;;;;0.50;0.50;;;11.90;96.80;;;;;;5005393;28;20030;-75
2022/04/24 12:11:26;;;;;;;0.30;0.30;;;11.90;98.70;;;;;;5006442;28;20033;-75
2022/04/24 12:14:10;;;;;;;0.38;0.38;;;11.90;99.90;;;;;;5005359;28;20767;-75
2022/04/24 12:16:39;;;;;;;0.40;0.40;;;12.00;99.20;;;;;;5008310;28;20022;-75
2022/04/24 12:19:05;;;;;;;;;;;12.10;99.90;;;;;;5007084;28;20608;-76
2022/04/24 12:21:32;;;;;;;0.30;0.30;;;12.00;97.70;;;;;;5004575;28;19962;-76
2022/04/24 12:23:59;;;;;;;0.40;0.40;;;12.00;96.60;;;;;;5003290;28;20044;-76
2022/04/24 12:26:26;;;;;;;0.30;0.30;;;12.00;97.70;;;;;;5003795;28;20117;-75
2022/04/24 12:28:52;;;;;;;0.40;0.40;;;12.00;98.60;;;;;;5004579;28;20536;-76
2022/04/24 12:31:23;;;;;;;0.40;0.40;;;11.90;99.50;;;;;;5001663;28;20096;-75
2022/04/24 12:33:52;;;;;;;0.50;0.50;;;11.90;98.80;;;;;;5006044;28;20100;-75
2022/04/24 12:36:18;;;;;;;0.40;0.40;;;11.90;99.30;;;;;;5008402;28;20049;-75
2022/04/24 12:39:04;;;;;;;0.40;0.40;;;12.00;99.90;;;;;;5007195;28;20042;-75
2022/04/24 12:41:30;;;;;;;0.50;0.50;;;11.90;99.80;;;;;;5008628;28;20038;-75
2022/04/24 12:44:00;;;;;;;0.60;0.60;;;12.00;97.90;;;;;;5003450;28;20053;-75
2022/04/24 12:46:26;;;;;;;0.50;0.50;;;12.00;99.90;;;;;;5006413;28;22179;-75
2022/04/24 12:48:53;;;;;;;0.25;0.25;;;11.90;99.50;;;;;;5006871;28;20048;-75
2022/04/24 12:51:21;;;;;;;0.50;0.50;;;11.80;99.90;;;;;;5004981;28;20145;-75